Hlavní strana
METAR-TAF:

METAR-TAF

Letiště :

Mezinárodní letiště Krále Abda al-Azíze

Džidda, Saúdská Arábie

zeměpisná šířka: 21-42N, zeměpisná délka: 039-11E, výška: 15 m

Aktuální stav počasí

Zpráva byla vytvořena před 54 minutami, v 02:00 UTC
Bezvětří
Teplota 28°C
Vlhkost vzduchu 74%
Tlak 1002 hPa
Viditelnost 10 km a více
Žádná oblačnost pod 1500 m, nevyskytují se cumulonimby.

METAR: OEJN 180200Z 00000KT CAVOK 28/23 Q1002 NOSIG

Čas: 05:54 (02:54 UTC)

Předpověď počasí

Zpráva byla vytvořena před 3 hodinami a 54 minutami, v 23:00 UTC
Předpověď platná od 18 v 00 UTC do 19 v 06 UTC
vítr z různých směrů 3 kt
Viditelnost 10 km a více
Žádná oblačnost pod 1500 m, nevyskytují se cumulonimby.
Změna
od 18 v 06 UTC do 18 v 08 UTC
Západní vítr 13 kt

TAF: OEJN 172300Z 1800/1906 VRB03KT CAVOK BECMG 1806/1808 27013KT

Stav a předpovědi počasí z více než 4 000 letišť (zprávy METAR a TAF).

Červené a žluté tečky na mapě představují dostupné meteorologické stanice.

Když kurzor umístíte na tečku, zobrazí se název stanice.

Pak kliknutím zobrazíte stav a předpověď počasí.

Chcete-li změnit mapu, kliknutím na zelené tlačítko se znaménkem +mapu přiblížíte, kliknutím na zelené tlačítko se znaménkem – mapu oddálíte a kliknutím na zelené šipky přejdete na sousední mapy.


METAR-TAF: